Time;durP1;ratioP1;P1;durP2;ratioP2;P2;SDS_P1;SDS_P2;PMS_P1;PMS_P2;Temp;Humidity;BMP_temperature;BMP_pressure;BME280_temperature;BME280_humidity;BME280_pressure;Samples;Min_cycle;Max_cycle;Signal;HPM_P1;HPM_P2
2021/03/24 12:58:26;;;;;;;15.18;7.75;;;23.60;51.60;;;;;;5154276;27;20337;-78
2021/03/24 13:01:19;;;;;;;11.85;7.10;;;22.40;51.70;;;;;;5156452;27;20023;-78
2021/03/24 13:04:07;;;;;;;14.32;6.82;;;22.00;52.20;;;;;;5161002;27;20033;-80
2021/03/24 13:07:01;;;;;;;12.98;7.30;;;22.40;50.00;;;;;;5152221;27;20075;-79
2021/03/24 13:09:45;;;;;;;11.25;6.65;;;22.60;52.00;;;;;;5161158;27;20022;-78
2021/03/24 13:12:28;;;;;;;8.65;6.40;;;22.60;51.20;;;;;;5157580;27;21578;-78
2021/03/24 13:15:06;;;;;;;12.05;7.10;;;23.00;49.80;;;;;;5163987;27;20023;-77
2021/03/24 13:18:13;;;;;;;10.32;6.50;;;23.00;48.20;;;;;;5155034;27;20030;-77
2021/03/24 13:20:57;;;;;;;12.40;6.70;;;23.00;48.80;;;;;;5085200;28;20016;-79
2021/03/24 13:23:37;;;;;;;14.85;7.25;;;23.00;49.40;;;;;;5156486;27;20118;-80
2021/03/24 13:26:18;;;;;;;12.27;6.93;;;22.80;48.20;;;;;;5164386;27;20539;-78
2021/03/24 13:28:44;;;;;;;10.70;6.90;;;23.00;49.50;;;;;;5163174;27;20039;-79
2021/03/24 13:31:49;;;;;;;10.82;7.13;;;23.10;50.30;;;;;;5171690;27;20060;-80
2021/03/24 13:34:24;;;;;;;13.32;6.63;;;23.30;47.90;;;;;;5128556;27;20052;-80
2021/03/24 13:36:56;;;;;;;9.90;6.53;;;23.20;47.90;;;;;;5165247;27;20044;-79
2021/03/24 13:39:40;;;;;;;10.18;6.38;;;23.30;49.30;;;;;;5172594;27;20043;-79
2021/03/24 13:42:17;;;;;;;9.73;6.25;;;23.70;48.70;;;;;;5165202;27;20023;-78
2021/03/24 13:45:30;;;;;;;12.48;7.30;;;24.00;49.10;;;;;;5163945;27;20031;-80
2021/03/24 13:48:24;;;;;;;10.70;6.35;;;24.40;47.10;;;;;;5145804;27;20039;-79
2021/03/24 13:51:14;;;;;;;9.30;5.78;;;25.10;47.20;;;;;;5164744;27;20023;-79
2021/03/24 13:53:55;;;;;;;11.85;6.55;;;26.00;45.90;;;;;;5164441;27;20032;-77
2021/03/24 13:56:21;;;;;;;14.60;6.72;;;27.30;47.60;;;;;;5170840;27;20042;-79
2021/03/24 13:59:11;;;;;;;11.63;6.78;;;26.10;46.80;;;;;;5170668;27;20019;-80
2021/03/24 14:02:09;;;;;;;9.77;5.82;;;26.30;45.50;;;;;;5168743;27;20046;-80
2021/03/24 14:05:03;;;;;;;11.13;7.10;;;26.90;44.00;;;;;;5173305;27;20501;-77
2021/03/24 14:08:07;;;;;;;10.32;5.90;;;26.60;44.20;;;;;;5171560;27;20019;-78
2021/03/24 14:10:44;;;;;;;8.40;5.80;;;25.70;42.30;;;;;;5053566;28;20044;-80
2021/03/24 14:13:30;;;;;;;10.95;5.88;;;25.80;45.10;;;;;;5146603;27;20031;-79
2021/03/24 14:16:27;;;;;;;8.77;5.60;;;26.70;41.60;;;;;;5154371;27;20034;-78
2021/03/24 14:19:01;;;;;;;9.30;4.82;;;26.60;41.50;;;;;;5150861;27;20520;-79
2021/03/24 14:21:43;;;;;;;8.02;5.03;;;26.90;41.80;;;;;;5145065;27;20026;-77
2021/03/24 14:24:56;;;;;;;8.95;4.53;;;27.40;42.20;;;;;;5152806;27;20015;-77
2021/03/24 14:27:49;;;;;;;10.48;5.10;;;27.10;41.40;;;;;;5112594;27;20031;-77
2021/03/24 14:30:26;;;;;;;9.15;5.18;;;27.00;41.30;;;;;;5145908;27;20077;-77
2021/03/24 14:33:15;;;;;;;9.15;5.15;;;26.40;42.80;;;;;;5146396;27;20094;-78
2021/03/24 14:36:01;;;;;;;8.35;5.13;;;27.00;41.70;;;;;;5146271;27;20019;-77
2021/03/24 14:38:57;;;;;;;8.98;4.95;;;27.10;41.90;;;;;;5155475;27;20090;-77
2021/03/24 14:42:01;;;;;;;8.65;4.90;;;27.70;40.10;;;;;;5140995;27;20407;-77
2021/03/24 14:44:48;;;;;;;13.18;5.32;;;27.60;41.00;;;;;;5145660;27;20079;-77
2021/03/24 14:47:32;;;;;;;9.05;4.78;;;28.80;40.60;;;;;;5145458;27;20026;-77
2021/03/24 14:50:13;;;;;;;10.57;4.80;;;27.90;40.50;;;;;;5140624;27;20109;-78
2021/03/24 14:52:47;;;;;;;9.85;5.53;;;26.90;40.70;;;;;;5133757;27;20030;-77
2021/03/24 14:55:35;;;;;;;10.07;5.68;;;26.80;42.50;;;;;;5151313;27;20033;-78
2021/03/24 14:58:20;;;;;;;10.10;4.95;;;26.20;42.10;;;;;;5148490;27;20031;-76
2021/03/24 15:00:46;;;;;;;8.38;5.60;;;26.40;41.90;;;;;;5141985;27;20100;-76
2021/03/24 15:03:27;;;;;;;10.38;4.95;;;26.50;42.70;;;;;;5136213;27;20031;-75
2021/03/24 15:05:54;;;;;;;8.18;4.88;;;27.00;41.70;;;;;;5148625;27;20027;-75
2021/03/24 15:08:49;;;;;;;9.20;5.63;;;27.50;41.80;;;;;;5139120;27;20030;-76
2021/03/24 15:11:20;;;;;;;10.80;5.65;;;27.90;40.00;;;;;;5137906;27;20049;-76
2021/03/24 15:13:46;;;;;;;7.50;4.60;;;27.90;40.00;;;;;;5127707;27;20023;-76
2021/03/24 15:16:30;;;;;;;8.93;4.30;;;27.70;40.10;;;;;;5138683;27;20073;-76
2021/03/24 15:19:28;;;;;;;8.00;4.25;;;27.00;41.30;;;;;;5144321;27;20098;-76
2021/03/24 15:22:03;;;;;;;11.32;5.32;;;26.40;40.70;;;;;;5135009;27;20023;-76
2021/03/24 15:25:14;;;;;;;6.90;4.03;;;25.90;42.50;;;;;;5141501;27;20026;-76
2021/03/24 15:28:02;;;;;;;11.60;4.80;;;26.40;40.60;;;;;;5145156;27;20027;-76
2021/03/24 15:30:33;;;;;;;7.25;4.07;;;26.80;39.70;;;;;;5136778;27;20031;-76
2021/03/24 15:33:17;;;;;;;8.15;4.10;;;26.50;40.90;;;;;;5135703;27;20038;-76
2021/03/24 15:35:51;;;;;;;8.25;4.28;;;26.60;39.80;;;;;;5138951;27;20023;-76
2021/03/24 15:38:35;;;;;;;6.82;3.80;;;26.40;40.40;;;;;;5135234;27;20643;-76
2021/03/24 15:41:03;;;;;;;7.88;4.20;;;26.40;40.20;;;;;;5142596;27;20052;-76
2021/03/24 15:43:45;;;;;;;6.68;3.65;;;26.50;41.00;;;;;;5137808;27;20051;-76
2021/03/24 15:46:26;;;;;;;6.15;3.45;;;26.50;40.00;;;;;;5140221;27;20022;-76
2021/03/24 15:48:57;;;;;;;6.40;3.97;;;26.60;40.40;;;;;;5141724;27;20023;-76
2021/03/24 15:51:28;;;;;;;6.20;3.67;;;26.40;41.10;;;;;;5138678;27;20019;-76
2021/03/24 15:53:56;;;;;;;10.63;4.90;;;26.00;41.30;;;;;;5141093;27;20113;-76
2021/03/24 15:56:46;;;;;;;7.65;3.70;;;26.40;41.00;;;;;;5130980;27;20035;-76
2021/03/24 15:59:12;;;;;;;7.20;4.10;;;26.20;40.70;;;;;;5137733;27;20043;-77
2021/03/24 16:02:08;;;;;;;7.40;3.30;;;25.40;42.30;;;;;;5135912;27;20592;-77
2021/03/24 16:05:01;;;;;;;6.60;3.72;;;25.80;40.70;;;;;;5146605;27;20006;-78
2021/03/24 16:07:44;;;;;;;7.32;3.30;;;26.20;40.10;;;;;;5145297;27;20031;-76
2021/03/24 16:10:35;;;;;;;7.43;3.50;;;26.00;41.80;;;;;;5148614;27;20072;-79
2021/03/24 16:13:07;;;;;;;6.88;3.60;;;25.60;40.60;;;;;;5150598;27;20019;-78
2021/03/24 16:15:58;;;;;;;6.20;3.30;;;25.90;41.70;;;;;;5143012;27;20030;-75
2021/03/24 16:18:45;;;;;;;7.85;3.30;;;26.80;40.00;;;;;;5148776;27;20051;-77
2021/03/24 16:21:37;;;;;;;6.50;2.83;;;26.80;39.30;;;;;;5141301;27;20031;-78
2021/03/24 16:24:16;;;;;;;5.97;2.40;;;27.00;38.30;;;;;;5145895;27;20027;-78
2021/03/24 16:26:51;;;;;;;4.72;2.92;;;26.30;40.20;;;;;;5146889;27;20028;-78
2021/03/24 16:29:28;;;;;;;7.55;2.60;;;25.10;40.10;;;;;;5174495;27;20043;-76
2021/03/24 16:32:19;;;;;;;5.70;2.30;;;24.10;41.70;;;;;;5170762;27;20007;-79
2021/03/24 16:35:49;;;;;;;6.82;2.90;;;23.80;41.20;;;;;;5156093;27;20023;-80
2021/03/24 16:38:45;;;;;;;4.47;2.30;;;23.90;40.90;;;;;;5064511;28;20044;-78
2021/03/24 16:41:14;;;;;;;6.32;2.92;;;24.30;40.20;;;;;;5141618;27;20443;-77
2021/03/24 16:44:05;;;;;;;9.13;3.08;;;25.20;39.90;;;;;;5138555;27;20026;-77
2021/03/24 16:46:49;;;;;;;5.22;2.47;;;25.20;39.70;;;;;;5141338;27;20031;-78
2021/03/24 16:49:45;;;;;;;5.88;2.67;;;24.80;39.30;;;;;;5134285;27;20020;-78
2021/03/24 16:52:25;;;;;;;6.55;3.55;;;24.80;39.10;;;;;;5135222;27;20039;-77
2021/03/24 16:55:12;;;;;;;5.55;2.80;;;24.50;40.00;;;;;;5121432;28;20032;-77
2021/03/24 16:57:46;;;;;;;5.25;2.58;;;24.50;39.90;;;;;;5123459;28;20035;-77
2021/03/24 17:00:14;;;;;;;5.00;2.45;;;23.60;42.00;;;;;;5124397;28;20024;-78
2021/03/24 17:03:18;;;;;;;6.75;3.25;;;23.20;42.40;;;;;;5130108;27;20024;-77
2021/03/24 17:06:13;;;;;;;5.65;2.80;;;22.70;41.60;;;;;;5149956;28;20034;-79
2021/03/24 17:08:56;;;;;;;4.93;2.60;;;22.20;42.30;;;;;;5128739;27;20516;-76
2021/03/24 17:11:41;;;;;;;;;;;22.30;42.30;;;;;;5135140;27;20023;-77
2021/03/24 17:14:32;;;;;;;9.82;3.65;;;22.40;42.70;;;;;;5132248;27;19904;-76
2021/03/24 17:17:05;;;;;;;5.57;2.78;;;22.40;42.40;;;;;;5129708;27;20030;-76
2021/03/24 17:19:42;;;;;;;5.82;2.53;;;21.70;43.20;;;;;;5132953;27;20566;-77
2021/03/24 17:22:22;;;;;;;8.30;3.13;;;20.80;44.10;;;;;;5133308;28;21103;-77
2021/03/24 17:24:50;;;;;;;6.90;2.67;;;20.30;46.80;;;;;;5129771;27;20019;-76
2021/03/24 17:27:19;;;;;;;7.50;3.35;;;19.40;48.30;;;;;;5128023;28;20059;-75
2021/03/24 17:30:12;;;;;;;10.13;2.97;;;18.60;50.70;;;;;;5126622;27;20090;-77
2021/03/24 17:32:41;;;;;;;14.70;4.43;;;17.50;50.10;;;;;;5131118;27;20510;-78
2021/03/24 17:35:20;;;;;;;11.38;3.60;;;16.80;54.10;;;;;;5132292;27;20030;-76
2021/03/24 17:38:18;;;;;;;10.55;3.00;;;16.20;54.70;;;;;;5129897;28;20087;-77
2021/03/24 17:40:49;;;;;;;11.25;3.17;;;15.60;56.20;;;;;;5134762;27;20054;-77
2021/03/24 17:43:22;;;;;;;13.23;2.90;;;15.30;57.00;;;;;;5135491;27;20076;-75
2021/03/24 17:45:57;;;;;;;6.75;2.58;;;14.90;58.60;;;;;;5139589;27;20494;-77
2021/03/24 17:48:38;;;;;;;6.43;2.65;;;14.60;61.60;;;;;;5139316;27;20106;-75
2021/03/24 17:51:24;;;;;;;9.23;3.50;;;14.30;61.60;;;;;;5139932;27;20027;-77
2021/03/24 17:54:01;;;;;;;15.77;3.35;;;13.80;66.40;;;;;;5132364;27;20023;-76
2021/03/24 17:56:35;;;;;;;10.43;2.47;;;13.30;68.60;;;;;;5128064;27;20027;-77
2021/03/24 17:59:21;;;;;;;6.80;2.85;;;13.20;74.70;;;;;;5127573;27;20016;-77
2021/03/24 18:01:59;;;;;;;9.10;3.28;;;12.70;77.70;;;;;;5131967;27;20515;-76
2021/03/24 18:04:40;;;;;;;7.75;3.83;;;12.60;83.60;;;;;;5124912;27;20020;-76
2021/03/24 18:07:27;;;;;;;4.82;2.10;;;12.10;89.20;;;;;;5128330;27;20019;-77
2021/03/24 18:09:54;;;;;;;9.32;3.65;;;11.80;96.40;;;;;;5131157;27;20031;-77
2021/03/24 18:12:44;;;;;;;6.97;2.85;;;11.60;99.90;;;;;;5128218;27;20029;-78
2021/03/24 18:15:13;;;;;;;6.82;3.28;;;11.50;99.90;;;;;;5131061;27;20020;-78
2021/03/24 18:17:48;;;;;;;11.68;5.32;;;11.10;99.90;;;;;;5129891;27;20041;-75
2021/03/24 18:20:22;;;;;;;11.85;4.70;;;11.10;99.90;;;;;;5137193;27;20068;-76
2021/03/24 18:22:51;;;;;;;14.20;8.57;;;10.90;99.90;;;;;;5127902;27;20023;-77
2021/03/24 18:25:34;;;;;;;28.55;15.43;;;10.80;99.90;;;;;;5126887;27;20020;-75
2021/03/24 18:28:06;;;;;;;;;;;10.80;99.90;;;;;;5122070;27;20035;-77
2021/03/24 18:30:39;;;;;;;13.35;7.20;;;10.50;99.90;;;;;;5123795;27;20363;-77
2021/03/24 18:33:31;;;;;;;14.35;9.68;;;10.60;99.90;;;;;;5122586;27;20059;-80
2021/03/24 18:36:20;;;;;;;16.52;8.35;;;10.30;99.90;;;;;;5112813;28;20019;-79
2021/03/24 18:38:49;;;;;;;10.23;6.35;;;10.20;99.90;;;;;;5112302;27;20024;-78
2021/03/24 18:41:17;;;;;;;14.15;5.25;;;10.30;99.90;;;;;;5110022;28;20088;-80
2021/03/24 18:43:49;;;;;;;8.52;5.32;;;9.90;99.90;;;;;;5112272;28;20035;-80
2021/03/24 18:46:16;;;;;;;7.28;5.03;;;10.10;99.90;;;;;;5111533;28;20030;-77
2021/03/24 18:48:56;;;;;;;8.65;5.40;;;9.50;99.90;;;;;;5111021;28;20073;-78
2021/03/24 18:51:56;;;;;;;10.27;4.57;;;9.90;99.90;;;;;;5109675;28;20457;-76
2021/03/24 18:54:28;;;;;;;11.38;5.03;;;9.20;99.90;;;;;;5042233;27;20114;-77
